Time;durP1;ratioP1;P1;durP2;ratioP2;P2;SDS_P1;SDS_P2;PMS_P1;PMS_P2;Temp;Humidity;BMP_temperature;BMP_pressure;BME280_temperature;BME280_humidity;BME280_pressure;Samples;Min_cycle;Max_cycle;Signal;HPM_P1;HPM_P2
2023/06/21 00:00:24;;;;;;;52.57;49.00;;;;;;;;;;5073674;28;20440;-77
2023/06/21 00:02:51;;;;;;;54.67;51.17;;;;;;;;;;5073982;28;20421;-78
2023/06/21 00:05:18;;;;;;;58.50;54.30;;;;;;;;;;5073844;28;20475;-80
2023/06/21 00:07:47;;;;;;;58.20;54.60;;;;;;;;;;5074885;28;20450;-80
2023/06/21 00:10:14;;;;;;;56.57;53.07;;;;;;;;;;5074081;28;20457;-79
2023/06/21 00:12:41;;;;;;;57.70;53.90;;;;;;;;;;5074924;28;20457;-80
2023/06/21 00:15:09;;;;;;;52.73;49.17;;;;;;;;;;5074990;28;20401;-79
2023/06/21 00:17:37;;;;;;;53.10;49.57;;;;;;;;;;5074367;28;20435;-80
2023/06/21 00:20:08;;;;;;;50.83;47.30;;;;;;;;;;5073314;28;21017;-79
2023/06/21 00:22:35;;;;;;;51.97;48.27;;;;;;;;;;5074621;28;20442;-79
2023/06/21 00:25:02;;;;;;;54.67;50.87;;;;;;;;;;5074454;28;20420;-78
2023/06/21 00:27:29;;;;;;;55.23;51.37;;;;;;;;;;5073598;28;20938;-79
2023/06/21 00:29:56;;;;;;;51.40;47.70;;;;;;;;;;5074131;28;20466;-79
2023/06/21 00:32:23;;;;;;;51.00;47.50;;;;;;;;;;5073675;28;20452;-80
2023/06/21 00:34:52;;;;;;;52.30;48.50;;;;;;;;;;5075417;28;20455;-79
2023/06/21 00:37:19;;;;;;;50.60;47.07;;;;;;;;;;5074030;28;20897;-79
2023/06/21 00:39:46;;;;;;;51.33;47.20;;;;;;;;;;5074073;28;20461;-80
2023/06/21 00:42:13;;;;;;;51.93;48.33;;;;;;;;;;5074875;28;20471;-79
2023/06/21 00:44:40;;;;;;;51.47;47.93;;;;;;;;;;5074406;28;20479;-80
2023/06/21 00:47:07;;;;;;;48.03;44.73;;;;;;;;;;5073780;28;20457;-80
2023/06/21 00:49:35;;;;;;;50.30;46.80;;;;;;;;;;5073918;28;20449;-80
2023/06/21 00:52:05;;;;;;;49.87;46.37;;;;;;;;;;5073397;28;20452;-80
2023/06/21 00:54:33;;;;;;;51.03;47.50;;;;;;;;;;5074048;28;20424;-79
2023/06/21 00:57:01;;;;;;;51.10;47.40;;;;;;;;;;5076277;28;20457;-80
2023/06/21 00:59:28;;;;;;;49.50;46.20;;;;;;;;;;5078225;28;20477;-80
2023/06/21 01:01:56;;;;;;;49.00;45.67;;;;;;;;;;5077392;28;20527;-80
2023/06/21 01:04:23;;;;;;;49.17;45.67;;;;;;;;;;5077774;28;20492;-80
2023/06/21 01:06:54;;;;;;;52.00;48.30;;;;;;;;;;5077914;28;20474;-79
2023/06/21 01:09:27;;;;;;;49.30;45.60;;;;;;;;;;5078044;28;20424;-80
2023/06/21 01:11:58;;;;;;;50.37;46.40;;;;;;;;;;5077060;28;20468;-81
2023/06/21 01:14:30;;;;;;;49.87;46.20;;;;;;;;;;5078040;28;20408;-79
2023/06/21 01:16:57;;;;;;;47.60;44.20;;;;;;;;;;5077548;28;20412;-79
2023/06/21 01:19:30;;;;;;;50.73;47.10;;;;;;;;;;5077869;28;20507;-80
2023/06/21 01:21:58;;;;;;;49.00;45.70;;;;;;;;;;5077267;28;20434;-80
2023/06/21 01:24:31;;;;;;;49.50;46.17;;;;;;;;;;5076978;28;20432;-80
2023/06/21 01:27:03;;;;;;;48.00;44.83;;;;;;;;;;5077107;28;20429;-80
2023/06/21 01:29:33;;;;;;;45.07;41.67;;;;;;;;;;5077866;28;20503;-80
2023/06/21 01:32:02;;;;;;;48.33;44.93;;;;;;;;;;5077609;28;20473;-80
2023/06/21 01:34:30;;;;;;;43.73;40.50;;;;;;;;;;5077725;28;20519;-80
2023/06/21 01:36:58;;;;;;;44.00;40.83;;;;;;;;;;5077187;28;20515;-80
2023/06/21 01:39:27;;;;;;;43.70;40.53;;;;;;;;;;5076851;28;20564;-80
2023/06/21 01:41:54;;;;;;;44.53;41.30;;;;;;;;;;5077762;28;20428;-81
2023/06/21 01:44:21;;;;;;;42.27;39.47;;;;;;;;;;5077832;28;20428;-80
2023/06/21 01:46:51;;;;;;;42.87;39.83;;;;;;;;;;5076915;28;20446;-80
2023/06/21 01:49:19;;;;;;;44.13;41.03;;;;;;;;;;5077284;28;20464;-80
2023/06/21 01:51:46;;;;;;;42.30;39.40;;;;;;;;;;5075762;28;20499;-80
2023/06/21 01:54:15;;;;;;;42.13;38.93;;;;;;;;;;5077142;28;20453;-78
2023/06/21 01:56:43;;;;;;;42.00;38.80;;;;;;;;;;5076158;28;20447;-80
2023/06/21 01:59:10;;;;;;;41.10;38.20;;;;;;;;;;5076904;28;20420;-80
2023/06/21 02:01:39;;;;;;;40.87;38.10;;;;;;;;;;5076924;28;20491;-81
2023/06/21 02:04:09;;;;;;;44.27;40.87;;;;;;;;;;5075147;28;20535;-80
2023/06/21 02:06:39;;;;;;;43.57;40.07;;;;;;;;;;5075906;28;20424;-80
2023/06/21 02:09:06;;;;;;;42.83;39.60;;;;;;;;;;5075720;28;20445;-80
2023/06/21 02:11:33;;;;;;;42.70;39.60;;;;;;;;;;5075376;28;20464;-79
2023/06/21 02:14:00;;;;;;;41.33;38.43;;;;;;;;;;5075374;28;20436;-80
2023/06/21 02:16:28;;;;;;;42.63;39.40;;;;;;;;;;5075115;28;20433;-80
2023/06/21 02:18:55;;;;;;;42.07;38.97;;;;;;;;;;5076585;28;21323;-80
2023/06/21 02:21:23;;;;;;;41.80;38.90;;;;;;;;;;5076820;28;20474;-81
2023/06/21 02:23:50;;;;;;;41.10;38.20;;;;;;;;;;5076613;28;20469;-80
2023/06/21 02:26:18;;;;;;;42.47;39.30;;;;;;;;;;5077005;28;20428;-81
2023/06/21 02:28:45;;;;;;;43.90;40.73;;;;;;;;;;5077272;28;20426;-81
2023/06/21 02:31:12;;;;;;;41.10;38.10;;;;;;;;;;5077046;28;20489;-81
2023/06/21 02:33:39;;;;;;;42.23;39.07;;;;;;;;;;5076774;28;20448;-81
2023/06/21 02:36:06;;;;;;;40.93;38.03;;;;;;;;;;5076090;28;20433;-81
2023/06/21 02:38:35;;;;;;;41.00;38.13;;;;;;;;;;5077586;28;20449;-80
2023/06/21 02:41:02;;;;;;;41.23;38.37;;;;;;;;;;5075261;28;20478;-81
2023/06/21 02:43:29;;;;;;;41.77;38.53;;;;;;;;;;5076215;28;20772;-80
2023/06/21 02:45:57;;;;;;;41.23;38.13;;;;;;;;;;5076805;28;20511;-79
2023/06/21 02:48:24;;;;;;;41.93;38.83;;;;;;;;;;5076908;28;20419;-77
2023/06/21 02:50:51;;;;;;;41.07;38.10;;;;;;;;;;5075711;28;20460;-80
2023/06/21 02:53:18;;;;;;;38.97;36.27;;;;;;;;;;5076303;28;20424;-80
2023/06/21 02:55:46;;;;;;;41.10;38.10;;;;;;;;;;5076661;28;20793;-79
2023/06/21 02:58:13;;;;;;;40.80;37.50;;;;;;;;;;5077302;28;20504;-80
2023/06/21 03:00:41;;;;;;;39.57;36.20;;;;;;;;;;5075440;28;20469;-79
2023/06/21 03:03:08;;;;;;;40.73;37.83;;;;;;;;;;5075594;28;20462;-80
2023/06/21 03:05:35;;;;;;;39.93;36.97;;;;;;;;;;5076107;28;20456;-79
2023/06/21 03:08:04;;;;;;;40.40;37.40;;;;;;;;;;5075387;28;20453;-79
2023/06/21 03:10:32;;;;;;;41.90;38.73;;;;;;;;;;5075217;28;20469;-79
2023/06/21 03:13:01;;;;;;;43.60;40.13;;;;;;;;;;5081514;28;20505;-77
2023/06/21 03:15:28;;;;;;;43.30;39.60;;;;;;;;;;5084863;28;20436;-79
2023/06/21 03:17:55;;;;;;;41.70;38.47;;;;;;;;;;5095976;28;20430;-79
2023/06/21 03:20:24;;;;;;;44.60;41.00;;;;;;;;;;5095549;28;20474;-78
2023/06/21 03:22:51;;;;;;;42.93;39.57;;;;;;;;;;5091742;28;21121;-80
2023/06/21 03:25:18;;;;;;;44.63;41.03;;;;;;;;;;5075440;28;20470;-80
2023/06/21 03:27:45;;;;;;;44.87;41.40;;;;;;;;;;5085806;28;20421;-79
2023/06/21 03:30:13;;;;;;;42.63;39.37;;;;;;;;;;5076100;28;20448;-79
2023/06/21 03:32:46;;;;;;;45.60;41.90;;;;;;;;;;5076228;28;20489;-80
2023/06/21 03:35:14;;;;;;;43.00;39.40;;;;;;;;;;5075480;28;20444;-79
2023/06/21 03:37:41;;;;;;;42.27;38.70;;;;;;;;;;5075376;28;20432;-80
2023/06/21 03:40:16;;;;;;;46.47;42.47;;;;;;;;;;5092286;28;20511;-81
2023/06/21 03:42:43;;;;;;;43.80;40.53;;;;;;;;;;5072565;28;20429;-81
2023/06/21 03:45:10;;;;;;;41.60;38.20;;;;;;;;;;5072280;28;20424;-79
2023/06/21 03:47:39;;;;;;;40.40;37.40;;;;;;;;;;5071359;28;20446;-80
2023/06/21 03:50:06;;;;;;;42.03;38.43;;;;;;;;;;5071156;28;20845;-81
2023/06/21 03:52:33;;;;;;;41.70;38.10;;;;;;;;;;5071856;28;20385;-81
2023/06/21 03:55:00;;;;;;;41.90;38.30;;;;;;;;;;5071862;28;20489;-81
2023/06/21 03:57:29;;;;;;;42.80;39.30;;;;;;;;;;5071304;28;20441;-80
2023/06/21 03:59:56;;;;;;;41.50;37.93;;;;;;;;;;5071591;28;20468;-80
2023/06/21 04:02:24;;;;;;;43.67;40.03;;;;;;;;;;5070702;28;20490;-81
2023/06/21 04:04:51;;;;;;;43.40;39.70;;;;;;;;;;5072000;28;20421;-80
2023/06/21 04:07:19;;;;;;;42.83;39.30;;;;;;;;;;5070983;28;20454;-80
2023/06/21 04:09:46;;;;;;;43.30;39.40;;;;;;;;;;5070845;28;21142;-80
2023/06/21 04:12:13;;;;;;;44.57;40.57;;;;;;;;;;5071337;28;20446;-81
2023/06/21 04:14:41;;;;;;;45.20;41.30;;;;;;;;;;5070774;28;20444;-80
2023/06/21 04:17:08;;;;;;;44.23;40.43;;;;;;;;;;5070751;28;20503;-80
2023/06/21 04:19:35;;;;;;;43.43;39.67;;;;;;;;;;5070674;28;20580;-79
2023/06/21 04:22:02;;;;;;;43.90;40.13;;;;;;;;;;5070831;28;20417;-81
2023/06/21 04:24:29;;;;;;;41.83;38.37;;;;;;;;;;5070941;28;20471;-81
2023/06/21 04:26:58;;;;;;;44.97;40.17;;;;;;;;;;5070617;28;20442;-81
2023/06/21 04:29:25;;;;;;;43.83;40.03;;;;;;;;;;5071405;28;20450;-81
2023/06/21 04:31:55;;;;;;;45.37;41.17;;;;;;;;;;5070264;28;20461;-82
2023/06/21 04:34:22;;;;;;;42.63;38.90;;;;;;;;;;5071426;28;20914;-80
2023/06/21 04:36:49;;;;;;;45.27;41.47;;;;;;;;;;5070086;28;20488;-81
2023/06/21 04:39:16;;;;;;;41.57;37.83;;;;;;;;;;5073375;28;20493;-82
2023/06/21 04:41:45;;;;;;;41.43;37.97;;;;;;;;;;5071945;28;20535;-82
2023/06/21 04:44:12;;;;;;;40.47;36.97;;;;;;;;;;5071635;28;20534;-80
2023/06/21 04:46:39;;;;;;;41.37;37.93;;;;;;;;;;5070732;28;20462;-82
2023/06/21 04:49:08;;;;;;;40.00;36.60;;;;;;;;;;5070879;28;20443;-80
2023/06/21 04:51:35;;;;;;;38.50;35.33;;;;;;;;;;5057396;28;20547;-80
2023/06/21 04:54:02;;;;;;;40.67;37.27;;;;;;;;;;5058318;28;20510;-80
2023/06/21 04:56:29;;;;;;;42.20;38.50;;;;;;;;;;5057173;28;20488;-80
2023/06/21 04:58:56;;;;;;;40.47;37.10;;;;;;;;;;5057173;28;20965;-79
2023/06/21 05:01:23;;;;;;;38.47;35.07;;;;;;;;;;5056905;28;20540;-81
2023/06/21 05:03:52;;;;;;;39.93;36.13;;;;;;;;;;5056816;28;20496;-81
2023/06/21 05:06:22;;;;;;;39.67;36.30;;;;;;;;;;5056706;28;20458;-81
2023/06/21 05:08:49;;;;;;;39.67;36.27;;;;;;;;;;5057578;28;20439;-81
2023/06/21 05:11:16;;;;;;;40.53;36.70;;;;;;;;;;5056694;28;20504;-81
2023/06/21 05:13:43;;;;;;;38.57;35.17;;;;;;;;;;5057017;28;20488;-81
2023/06/21 05:16:10;;;;;;;39.60;35.90;;;;;;;;;;5056454;28;20455;-81
2023/06/21 05:18:38;;;;;;;38.00;34.90;;;;;;;;;;5056922;28;20479;-80
2023/06/21 05:21:05;;;;;;;38.43;34.93;;;;;;;;;;5056217;28;20474;-81
2023/06/21 05:23:34;;;;;;;38.80;35.70;;;;;;;;;;5057111;28;20439;-79
2023/06/21 05:26:01;;;;;;;37.00;33.90;;;;;;;;;;5056824;28;20443;-80
2023/06/21 05:28:28;;;;;;;38.40;35.27;;;;;;;;;;5056141;28;20455;-79
2023/06/21 05:30:55;;;;;;;37.97;34.50;;;;;;;;;;5057127;28;20466;-80
2023/06/21 05:33:22;;;;;;;37.33;34.23;;;;;;;;;;5057290;28;20470;-79
2023/06/21 05:35:49;;;;;;;37.77;34.47;;;;;;;;;;5057089;28;20451;-79
2023/06/21 05:38:16;;;;;;;36.53;33.43;;;;;;;;;;5060718;28;20451;-79
2023/06/21 05:40:45;;;;;;;36.67;33.37;;;;;;;;;;5065563;28;20499;-78
2023/06/21 05:43:12;;;;;;;38.37;34.83;;;;;;;;;;5066045;28;20455;-80
2023/06/21 05:45:39;;;;;;;34.33;31.70;;;;;;;;;;5059138;28;20475;-78
2023/06/21 05:48:06;;;;;;;35.00;31.67;;;;;;;;;;5060405;28;20451;-79
2023/06/21 05:50:33;;;;;;;376.00;349.03;;;;;;;;;;5060085;28;20463;-80
2023/06/21 05:53:00;;;;;;;529.43;480.73;;;;;;;;;;5059727;28;20446;-80
2023/06/21 05:55:27;;;;;;;563.93;516.07;;;;;;;;;;5060345;28;20438;-79
2023/06/21 05:57:55;;;;;;;560.97;512.50;;;;;;;;;;5059503;28;20461;-79
2023/06/21 06:00:23;;;;;;;568.73;517.63;;;;;;;;;;5058707;28;20597;-77
2023/06/21 06:02:50;;;;;;;585.43;533.53;;;;;;;;;;5058705;28;20434;-80
2023/06/21 06:05:18;;;;;;;567.63;514.93;;;;;;;;;;5058684;28;20454;-81
2023/06/21 06:07:45;;;;;;;535.57;481.23;;;;;;;;;;5058999;28;20811;-78
2023/06/21 06:10:12;;;;;;;581.37;525.93;;;;;;;;;;5055784;28;20477;-80
2023/06/21 06:12:39;;;;;;;581.63;527.67;;;;;;;;;;5053857;28;20431;-78
2023/06/21 06:15:08;;;;;;;572.30;518.20;;;;;;;;;;5054216;28;20454;-80
2023/06/21 06:17:35;;;;;;;574.17;522.30;;;;;;;;;;5054613;28;20455;-78
2023/06/21 06:20:05;;;;;;;562.37;509.40;;;;;;;;;;5054426;28;20544;-79
2023/06/21 06:22:33;;;;;;;565.77;514.70;;;;;;;;;;5061619;28;20562;-80
2023/06/21 06:25:00;;;;;;;605.27;553.87;;;;;;;;;;5056206;28;20486;-79
2023/06/21 06:27:27;;;;;;;542.20;495.43;;;;;;;;;;5054360;28;20454;-79
2023/06/21 06:29:54;;;;;;;607.40;551.40;;;;;;;;;;5054475;28;20466;-80
2023/06/21 06:32:23;;;;;;;604.37;552.37;;;;;;;;;;5053949;28;20527;-80
2023/06/21 06:34:50;;;;;;;618.13;565.70;;;;;;;;;;5054315;28;20552;-78
2023/06/21 06:37:17;;;;;;;613.00;566.70;;;;;;;;;;5053684;28;20477;-80
2023/06/21 06:39:44;;;;;;;607.77;554.37;;;;;;;;;;5058292;28;20474;-80
2023/06/21 06:42:11;;;;;;;588.90;544.93;;;;;;;;;;5055415;28;20497;-81
2023/06/21 06:44:38;;;;;;;608.57;563.60;;;;;;;;;;5055525;28;20492;-79
2023/06/21 06:47:05;;;;;;;600.90;565.13;;;;;;;;;;5048668;28;20938;-80
2023/06/21 06:49:34;;;;;;;589.50;551.90;;;;;;;;;;5054489;28;20451;-80
2023/06/21 06:52:01;;;;;;;591.53;553.07;;;;;;;;;;5054644;28;20512;-79
2023/06/21 06:54:28;;;;;;;584.63;551.80;;;;;;;;;;5054358;28;20689;-79
2023/06/21 06:56:55;;;;;;;610.40;568.07;;;;;;;;;;5034340;28;20455;-78
2023/06/21 06:59:22;;;;;;;586.37;549.37;;;;;;;;;;5033822;28;20529;-80
2023/06/21 07:01:49;;;;;;;551.40;518.97;;;;;;;;;;5035341;28;20525;-80
2023/06/21 07:04:16;;;;;;;477.77;454.83;;;;;;;;;;5036187;28;20851;-80
2023/06/21 07:06:44;;;;;;;528.20;501.47;;;;;;;;;;5035756;28;20472;-80
2023/06/21 07:09:11;;;;;;;444.20;423.40;;;;;;;;;;5035762;28;20445;-81
2023/06/21 07:11:38;;;;;;;655.03;615.57;;;;;;;;;;5034483;28;21016;-80
2023/06/21 07:14:05;;;;;;;460.03;439.13;;;;;;;;;;5035268;28;20479;-80
2023/06/21 07:16:35;;;;;;;396.07;378.43;;;;;;;;;;5035117;28;20447;-78
2023/06/21 07:19:03;;;;;;;276.17;264.40;;;;;;;;;;5035605;28;20426;-79
2023/06/21 07:21:30;;;;;;;452.17;432.13;;;;;;;;;;5034934;28;20465;-80
2023/06/21 07:23:59;;;;;;;368.03;350.67;;;;;;;;;;5034739;28;20456;-80
2023/06/21 07:26:26;;;;;;;494.90;472.73;;;;;;;;;;5035144;28;20451;-80
2023/06/21 07:28:53;;;;;;;411.17;393.30;;;;;;;;;;5034894;28;20992;-79
2023/06/21 07:31:20;;;;;;;264.37;251.40;;;;;;;;;;5035233;28;20459;-79
2023/06/21 07:33:49;;;;;;;399.43;380.43;;;;;;;;;;5034090;28;20483;-78
2023/06/21 07:36:16;;;;;;;310.80;297.60;;;;;;;;;;5034989;28;20452;-80
2023/06/21 07:38:46;;;;;;;556.83;513.00;;;;;;;;;;5035302;28;20433;-79
2023/06/21 07:41:14;;;;;;;525.83;483.20;;;;;;;;;;5034350;28;20487;-80
2023/06/21 07:43:41;;;;;;;647.40;605.43;;;;;;;;;;5034931;28;20470;-81
2023/06/21 07:46:08;;;;;;;609.13;571.97;;;;;;;;;;5033879;28;20418;-79
2023/06/21 07:48:35;;;;;;;557.50;524.73;;;;;;;;;;5034418;28;20452;-81
2023/06/21 07:51:02;;;;;;;584.20;541.13;;;;;;;;;;5034567;28;20490;-81
2023/06/21 07:53:30;;;;;;;581.20;530.67;;;;;;;;;;5033829;28;20976;-80
2023/06/21 07:56:00;;;;;;;665.77;608.70;;;;;;;;;;5033423;28;20494;-80
2023/06/21 07:58:28;;;;;;;575.30;526.90;;;;;;;;;;5033640;28;20962;-80
2023/06/21 08:00:55;;;;;;;554.33;507.80;;;;;;;;;;5033600;28;20470;-80
2023/06/21 08:03:22;;;;;;;230.13;218.63;;;;;;;;;;5033945;28;20932;-79
2023/06/21 08:05:49;;;;;;;212.53;199.87;;;;;;;;;;5033225;28;20523;-80
2023/06/21 08:08:17;;;;;;;754.97;691.80;;;;;;;;;;5034585;28;20509;-80
2023/06/21 08:10:44;;;;;;;693.77;634.67;;;;;;;;;;5033687;28;20472;-79
2023/06/21 08:13:11;;;;;;;590.20;560.83;;;;;;;;;;5034300;28;20517;-80
2023/06/21 08:15:39;;;;;;;723.07;659.47;;;;;;;;;;5033985;28;20455;-80
2023/06/21 08:18:07;;;;;;;736.77;676.50;;;;;;;;;;5033601;28;20448;-80
2023/06/21 08:20:34;;;;;;;695.60;634.03;;;;;;;;;;5032748;28;20522;-79
2023/06/21 08:23:01;;;;;;;702.67;641.77;;;;;;;;;;5032640;28;20455;-79
2023/06/21 08:25:28;;;;;;;525.37;499.37;;;;;;;;;;5035141;28;20479;-83
2023/06/21 08:27:55;;;;;;;680.40;619.83;;;;;;;;;;5037507;28;20454;-79
2023/06/21 08:30:22;;;;;;;404.67;386.27;;;;;;;;;;5037222;28;20988;-82
2023/06/21 08:32:51;;;;;;;380.20;364.37;;;;;;;;;;5037807;28;20825;-81
2023/06/21 08:35:18;;;;;;;80.20;75.90;;;;;;;;;;5037798;28;20543;-81
2023/06/21 08:37:55;;;;;;;679.00;618.17;;;;;;;;;;5036471;28;20509;-81
2023/06/21 08:40:25;;;;;;;668.70;608.17;;;;;;;;;;5037418;28;20495;-81
2023/06/21 08:42:52;;;;;;;685.30;625.00;;;;;;;;;;5037599;28;20501;-81
2023/06/21 08:45:19;;;;;;;677.00;618.50;;;;;;;;;;5037832;28;20478;-81
2023/06/21 08:47:47;;;;;;;704.33;643.33;;;;;;;;;;5036697;28;20517;-82
2023/06/21 08:50:17;;;;;;;733.50;671.17;;;;;;;;;;5037932;28;20472;-81
2023/06/21 08:52:45;;;;;;;382.93;367.10;;;;;;;;;;5037349;28;20446;-80
2023/06/21 08:55:13;;;;;;;632.17;589.30;;;;;;;;;;5036464;28;20426;-80
2023/06/21 08:57:41;;;;;;;733.70;672.13;;;;;;;;;;5036679;28;20447;-79
2023/06/21 09:00:11;;;;;;;708.67;646.70;;;;;;;;;;5036580;28;20524;-79
2023/06/21 09:02:43;;;;;;;74.90;71.13;;;;;;;;;;5035989;28;20513;-78
2023/06/21 09:05:12;;;;;;;74.93;71.00;;;;;;;;;;5036000;28;20475;-78
2023/06/21 09:07:41;;;;;;;234.23;224.77;;;;;;;;;;5035765;28;20451;-79
2023/06/21 09:10:09;;;;;;;642.07;610.67;;;;;;;;;;5035886;28;20534;-82
2023/06/21 09:12:37;;;;;;;790.70;746.93;;;;;;;;;;5037712;28;20841;-79
2023/06/21 09:15:04;;;;;;;811.03;759.10;;;;;;;;;;5037073;28;20440;-85
2023/06/21 09:17:31;;;;;;;834.10;772.80;;;;;;;;;;5037099;28;20517;-81
2023/06/21 09:19:58;;;;;;;825.13;761.20;;;;;;;;;;5037968;28;20614;-79
2023/06/21 09:22:26;;;;;;;824.57;767.70;;;;;;;;;;5045004;28;20528;-84
2023/06/21 09:24:55;;;;;;;797.57;733.97;;;;;;;;;;5060401;28;20497;-80
2023/06/21 09:27:22;;;;;;;781.10;721.77;;;;;;;;;;5054787;28;20501;-78
2023/06/21 09:29:49;;;;;;;798.27;739.00;;;;;;;;;;5058171;28;20508;-85
2023/06/21 09:32:16;;;;;;;795.17;734.97;;;;;;;;;;5054537;28;20459;-77
2023/06/21 09:34:43;;;;;;;816.40;752.90;;;;;;;;;;5054267;28;20455;-76
2023/06/21 09:37:10;;;;;;;803.80;739.93;;;;;;;;;;5053769;28;20458;-76
2023/06/21 09:39:37;;;;;;;810.67;745.80;;;;;;;;;;5053031;28;20524;-77
2023/06/21 09:42:07;;;;;;;795.20;730.60;;;;;;;;;;5053678;28;20490;-79
2023/06/21 09:44:37;;;;;;;790.10;725.83;;;;;;;;;;5053919;28;20520;-79
2023/06/21 09:47:04;;;;;;;806.83;743.07;;;;;;;;;;5053865;28;20454;-78
2023/06/21 09:49:31;;;;;;;797.87;731.53;;;;;;;;;;5052331;28;20450;-78
2023/06/21 09:51:58;;;;;;;806.67;741.77;;;;;;;;;;5056058;28;20549;-81
2023/06/21 09:54:25;;;;;;;832.50;766.10;;;;;;;;;;5055984;28;20439;-79
2023/06/21 09:56:52;;;;;;;815.50;750.10;;;;;;;;;;5055284;28;20518;-79
2023/06/21 09:59:22;;;;;;;832.27;766.53;;;;;;;;;;5055647;28;20455;-78
2023/06/21 10:01:50;;;;;;;822.33;757.43;;;;;;;;;;5054367;28;20849;-78
2023/06/21 10:04:17;;;;;;;833.37;767.67;;;;;;;;;;5056138;28;20471;-78
2023/06/21 10:06:51;;;;;;;829.97;764.27;;;;;;;;;;5055307;28;20458;-78
2023/06/21 10:09:18;;;;;;;848.20;782.80;;;;;;;;;;5056420;28;20462;-79
2023/06/21 10:11:45;;;;;;;854.50;787.27;;;;;;;;;;5055651;28;20470;-78
2023/06/21 10:14:19;;;;;;;823.47;758.83;;;;;;;;;;5055485;28;20442;-77
2023/06/21 10:16:48;;;;;;;841.87;775.17;;;;;;;;;;5059850;28;20446;-78
2023/06/21 10:19:15;;;;;;;787.13;724.10;;;;;;;;;;5072265;28;20489;-78
2023/06/21 10:21:43;;;;;;;809.27;744.50;;;;;;;;;;5071932;28;20553;-78
2023/06/21 10:24:13;;;;;;;839.47;774.10;;;;;;;;;;5065940;28;20442;-80
2023/06/21 10:26:40;;;;;;;841.30;775.90;;;;;;;;;;5058202;28;20450;-80
2023/06/21 10:29:08;;;;;;;801.00;736.63;;;;;;;;;;5057732;28;20451;-78
2023/06/21 10:31:44;;;;;;;825.93;761.33;;;;;;;;;;5056452;28;20493;-79
2023/06/21 10:34:15;;;;;;;830.30;765.20;;;;;;;;;;5055377;28;20477;-79
2023/06/21 10:36:44;;;;;;;863.17;796.57;;;;;;;;;;5054484;28;20443;-79
2023/06/21 10:39:11;;;;;;;828.47;763.00;;;;;;;;;;5054885;28;20446;-79
2023/06/21 10:41:40;;;;;;;830.20;763.67;;;;;;;;;;5054471;28;20494;-79
2023/06/21 10:44:07;;;;;;;859.53;793.23;;;;;;;;;;5054802;28;20534;-79
2023/06/21 10:46:36;;;;;;;847.53;781.87;;;;;;;;;;5052855;28;20807;-76
2023/06/21 10:49:03;;;;;;;848.30;782.73;;;;;;;;;;5052862;28;20504;-77
2023/06/21 10:51:32;;;;;;;848.13;782.13;;;;;;;;;;5054154;28;20872;-77
2023/06/21 10:53:59;;;;;;;843.47;777.63;;;;;;;;;;5054458;28;20504;-77
2023/06/21 10:56:26;;;;;;;861.30;794.93;;;;;;;;;;5053388;28;20451;-77
2023/06/21 10:58:53;;;;;;;843.47;777.77;;;;;;;;;;5055604;28;20485;-78
2023/06/21 11:01:22;;;;;;;832.67;767.47;;;;;;;;;;5054458;28;20494;-79
2023/06/21 11:03:49;;;;;;;877.83;810.87;;;;;;;;;;5054551;28;20438;-79
2023/06/21 11:06:22;;;;;;;860.50;794.10;;;;;;;;;;5053861;28;20469;-77
2023/06/21 11:08:51;;;;;;;877.17;809.80;;;;;;;;;;5054459;28;20454;-77
2023/06/21 11:11:28;;;;;;;864.60;798.00;;;;;;;;;;5053990;28;20866;-77
2023/06/21 11:13:56;;;;;;;853.97;788.00;;;;;;;;;;5054115;28;20477;-80
2023/06/21 11:16:25;;;;;;;842.53;776.80;;;;;;;;;;5054322;28;20509;-80
2023/06/21 11:18:55;;;;;;;863.07;797.07;;;;;;;;;;5053453;28;20447;-77
2023/06/21 11:21:37;;;;;;;895.03;827.63;;;;;;;;;;5054115;28;20494;-78
2023/06/21 11:24:08;;;;;;;865.67;799.17;;;;;;;;;;5054951;28;20450;-78
2023/06/21 11:26:55;;;;;;;897.47;829.97;;;;;;;;;;5039400;28;20454;-77
2023/06/21 11:29:22;;;;;;;857.37;791.07;;;;;;;;;;5033241;28;20470;-77
2023/06/21 11:31:49;;;;;;;842.87;777.17;;;;;;;;;;5033342;28;20817;-76
2023/06/21 11:34:29;;;;;;;893.30;825.53;;;;;;;;;;5033478;28;20455;-77
2023/06/21 11:36:56;;;;;;;864.87;798.33;;;;;;;;;;5031760;28;20455;-76
2023/06/21 11:39:28;;;;;;;907.50;839.50;;;;;;;;;;5031966;28;20467;-76
2023/06/21 11:41:59;;;;;;;897.47;827.23;;;;;;;;;;5030880;28;20483;-77
2023/06/21 11:44:27;;;;;;;874.37;807.17;;;;;;;;;;5050613;28;20462;-76
2023/06/21 11:47:03;;;;;;;879.37;812.43;;;;;;;;;;5051900;28;20451;-76
2023/06/21 11:49:32;;;;;;;907.47;838.40;;;;;;;;;;5051348;28;20492;-76
2023/06/21 11:52:02;;;;;;;897.10;830.07;;;;;;;;;;5051604;28;20461;-76
2023/06/21 11:54:31;;;;;;;888.03;820.17;;;;;;;;;;5051227;28;20443;-77
2023/06/21 11:56:59;;;;;;;901.43;833.63;;;;;;;;;;5051169;28;20455;-76
2023/06/21 11:59:26;;;;;;;885.90;818.57;;;;;;;;;;5051300;28;20433;-78
2023/06/21 12:01:53;;;;;;;911.03;843.03;;;;;;;;;;5054611;28;20488;-78
2023/06/21 12:04:27;;;;;;;894.87;827.60;;;;;;;;;;5056845;28;20450;-77
2023/06/21 12:06:55;;;;;;;887.70;820.70;;;;;;;;;;5055448;28;20504;-77
2023/06/21 12:09:22;;;;;;;886.93;819.83;;;;;;;;;;5056093;28;20459;-77
2023/06/21 12:11:50;;;;;;;893.60;826.67;;;;;;;;;;5054949;28;20467;-77
2023/06/21 12:14:17;;;;;;;887.80;820.70;;;;;;;;;;5054931;28;20454;-78
2023/06/21 12:16:44;;;;;;;913.97;845.87;;;;;;;;;;5055427;28;20500;-76
2023/06/21 12:19:12;;;;;;;843.33;777.87;;;;;;;;;;5055740;28;20941;-76
2023/06/21 12:21:39;;;;;;;889.07;822.33;;;;;;;;;;5055819;28;20547;-77
2023/06/21 12:24:07;;;;;;;885.40;818.40;;;;;;;;;;5055312;28;20458;-77
2023/06/21 12:26:34;;;;;;;887.40;820.43;;;;;;;;;;5055466;28;20500;-77
2023/06/21 12:29:02;;;;;;;895.20;828.10;;;;;;;;;;5055905;28;20454;-78
2023/06/21 12:31:30;;;;;;;877.47;810.97;;;;;;;;;;5054856;28;20478;-77
2023/06/21 12:34:00;;;;;;;885.50;818.20;;;;;;;;;;5054997;28;20537;-78
2023/06/21 12:36:29;;;;;;;902.57;834.80;;;;;;;;;;5054088;28;20545;-78
2023/06/21 12:38:57;;;;;;;893.17;826.00;;;;;;;;;;5054588;28;20474;-76
2023/06/21 12:41:24;;;;;;;910.67;843.53;;;;;;;;;;5055220;28;20975;-77
2023/06/21 12:43:53;;;;;;;886.73;820.13;;;;;;;;;;5055607;28;20616;-76
2023/06/21 12:46:22;;;;;;;925.23;857.30;;;;;;;;;;5056484;28;20455;-77
2023/06/21 12:48:49;;;;;;;936.30;867.63;;;;;;;;;;5055330;28;20474;-77
2023/06/21 12:51:23;;;;;;;939.57;870.50;;;;;;;;;;5055667;28;20462;-78
2023/06/21 12:53:55;;;;;;;913.43;845.93;;;;;;;;;;5055782;28;20797;-77
2023/06/21 12:56:22;;;;;;;913.67;846.23;;;;;;;;;;5055155;28;20446;-77
2023/06/21 12:58:50;;;;;;;923.20;855.60;;;;;;;;;;5056268;28;20524;-86
2023/06/21 13:01:17;;;;;;;889.20;822.87;;;;;;;;;;5056368;28;20486;-78
2023/06/21 13:03:46;;;;;;;926.37;858.07;;;;;;;;;;5055234;28;20923;-78
2023/06/21 13:06:13;;;;;;;932.03;863.83;;;;;;;;;;5054947;28;20450;-83
2023/06/21 13:08:40;;;;;;;913.53;846.33;;;;;;;;;;5056161;28;20827;-85
2023/06/21 13:11:08;;;;;;;954.37;885.20;;;;;;;;;;5056041;28;20478;-80
2023/06/21 13:13:35;;;;;;;930.20;862.00;;;;;;;;;;5059088;28;20446;-77
2023/06/21 13:16:02;;;;;;;922.03;853.67;;;;;;;;;;5054964;28;21016;-76
2023/06/21 13:18:32;;;;;;;905.17;838.17;;;;;;;;;;5056845;28;20446;-77
2023/06/21 13:21:01;;;;;;;909.73;842.67;;;;;;;;;;5054835;28;20474;-82
2023/06/21 13:23:28;;;;;;;913.07;845.80;;;;;;;;;;5056796;28;20478;-79
2023/06/21 13:25:56;;;;;;;890.63;823.93;;;;;;;;;;5055537;28;20492;-80
2023/06/21 13:28:26;;;;;;;924.03;856.33;;;;;;;;;;5056343;28;21128;-79
2023/06/21 13:30:53;;;;;;;915.70;848.50;;;;;;;;;;5056885;28;20525;-79
2023/06/21 13:33:20;;;;;;;909.57;842.37;;;;;;;;;;5055641;28;20471;-80
2023/06/21 13:35:47;;;;;;;933.90;864.90;;;;;;;;;;5054978;28;20465;-76
2023/06/21 13:38:15;;;;;;;908.47;841.23;;;;;;;;;;5053868;28;21005;-76
2023/06/21 13:40:43;;;;;;;889.50;823.23;;;;;;;;;;5053923;28;20481;-76
2023/06/21 13:43:10;;;;;;;908.07;840.57;;;;;;;;;;5053735;28;20487;-76
2023/06/21 13:45:37;;;;;;;930.40;861.67;;;;;;;;;;5054645;28;20509;-77
2023/06/21 13:48:05;;;;;;;945.57;877.10;;;;;;;;;;5053811;28;20455;-77
2023/06/21 13:50:32;;;;;;;960.93;892.37;;;;;;;;;;5053574;28;20475;-78
2023/06/21 13:52:59;;;;;;;958.43;889.43;;;;;;;;;;5053671;28;20836;-77
2023/06/21 13:55:28;;;;;;;964.10;894.33;;;;;;;;;;5053287;28;20447;-77
2023/06/21 13:57:55;;;;;;;938.57;870.57;;;;;;;;;;5053145;28;20822;-75
2023/06/21 14:00:23;;;;;;;940.73;873.07;;;;;;;;;;5053293;28;20548;-77
2023/06/21 14:02:50;;;;;;;949.67;881.17;;;;;;;;;;5053498;28;20518;-76
2023/06/21 14:05:18;;;;;;;966.30;897.23;;;;;;;;;;5053159;28;20463;-77
2023/06/21 14:07:46;;;;;;;975.83;905.23;;;;;;;;;;5052878;28;20934;-81